sensor_id;sensor_type;location;lat;lon;timestamp;P1;durP1;ratioP1;P2;durP2;ratioP2
12348;SDS011;5974;42.710;27.258;2023-03-01T00:01:35;1.80;;;1.70;;
12348;SDS011;5974;42.710;27.258;2023-03-01T00:04:02;2.17;;;2.07;;
12348;SDS011;5974;42.710;27.258;2023-03-01T00:06:29;1.70;;;1.60;;
12348;SDS011;5974;42.710;27.258;2023-03-01T00:08:56;1.90;;;1.80;;
12348;SDS011;5974;42.710;27.258;2023-03-01T00:11:23;2.10;;;2.00;;
12348;SDS011;5974;42.710;27.258;2023-03-01T00:13:52;2.30;;;2.13;;
12348;SDS011;5974;42.710;27.258;2023-03-01T00:16:20;2.50;;;2.30;;
12348;SDS011;5974;42.710;27.258;2023-03-01T00:18:50;2.77;;;2.53;;
12348;SDS011;5974;42.710;27.258;2023-03-01T00:21:17;2.70;;;2.50;;
12348;SDS011;5974;42.710;27.258;2023-03-01T00:23:46;2.60;;;2.40;;
12348;SDS011;5974;42.710;27.258;2023-03-01T00:26:14;2.60;;;2.30;;
12348;SDS011;5974;42.710;27.258;2023-03-01T00:28:42;3.30;;;2.60;;
12348;SDS011;5974;42.710;27.258;2023-03-01T00:31:09;2.50;;;2.30;;
12348;SDS011;5974;42.710;27.258;2023-03-01T00:33:37;2.53;;;2.33;;
12348;SDS011;5974;42.710;27.258;2023-03-01T00:36:07;2.83;;;2.60;;
12348;SDS011;5974;42.710;27.258;2023-03-01T00:38:34;2.97;;;2.73;;
12348;SDS011;5974;42.710;27.258;2023-03-01T00:41:03;3.00;;;2.80;;
12348;SDS011;5974;42.710;27.258;2023-03-01T00:43:31;3.10;;;2.80;;
12348;SDS011;5974;42.710;27.258;2023-03-01T00:46:01;3.30;;;2.60;;
12348;SDS011;5974;42.710;27.258;2023-03-01T00:48:29;3.10;;;2.90;;
12348;SDS011;5974;42.710;27.258;2023-03-01T00:50:56;2.60;;;2.40;;
12348;SDS011;5974;42.710;27.258;2023-03-01T00:53:24;3.20;;;2.93;;
12348;SDS011;5974;42.710;27.258;2023-03-01T00:55:51;2.70;;;2.50;;
12348;SDS011;5974;42.710;27.258;2023-03-01T00:58:17;3.27;;;2.73;;
12348;SDS011;5974;42.710;27.258;2023-03-01T01:00:44;3.37;;;3.07;;
12348;SDS011;5974;42.710;27.258;2023-03-01T01:03:11;3.13;;;2.83;;
12348;SDS011;5974;42.710;27.258;2023-03-01T01:05:38;2.97;;;2.77;;
12348;SDS011;5974;42.710;27.258;2023-03-01T01:08:05;3.07;;;2.80;;
12348;SDS011;5974;42.710;27.258;2023-03-01T01:10:34;3.00;;;2.80;;
12348;SDS011;5974;42.710;27.258;2023-03-01T01:13:01;3.00;;;2.80;;
12348;SDS011;5974;42.710;27.258;2023-03-01T01:15:28;3.27;;;2.97;;
12348;SDS011;5974;42.710;27.258;2023-03-01T01:17:59;3.10;;;2.90;;
12348;SDS011;5974;42.710;27.258;2023-03-01T01:20:26;2.90;;;2.70;;
12348;SDS011;5974;42.710;27.258;2023-03-01T01:22:53;3.23;;;2.93;;
12348;SDS011;5974;42.710;27.258;2023-03-01T01:25:19;2.80;;;2.53;;
12348;SDS011;5974;42.710;27.258;2023-03-01T01:27:48;3.10;;;2.90;;
12348;SDS011;5974;42.710;27.258;2023-03-01T01:30:15;2.93;;;2.73;;
12348;SDS011;5974;42.710;27.258;2023-03-01T01:32:42;3.23;;;2.40;;
12348;SDS011;5974;42.710;27.258;2023-03-01T01:35:09;2.93;;;2.63;;
12348;SDS011;5974;42.710;27.258;2023-03-01T01:37:36;3.40;;;2.40;;
12348;SDS011;5974;42.710;27.258;2023-03-01T01:40:03;2.80;;;2.60;;
12348;SDS011;5974;42.710;27.258;2023-03-01T01:42:31;2.70;;;2.50;;
12348;SDS011;5974;42.710;27.258;2023-03-01T01:48:10;2.60;;;2.40;;
12348;SDS011;5974;42.710;27.258;2023-03-01T01:50:41;2.80;;;2.60;;
12348;SDS011;5974;42.710;27.258;2023-03-01T01:53:10;2.77;;;2.57;;
12348;SDS011;5974;42.710;27.258;2023-03-01T01:55:41;2.53;;;2.33;;
12348;SDS011;5974;42.710;27.258;2023-03-01T01:58:12;2.10;;;2.00;;
12348;SDS011;5974;42.710;27.258;2023-03-01T02:00:43;2.53;;;2.37;;
12348;SDS011;5974;42.710;27.258;2023-03-01T02:03:11;2.30;;;2.20;;
12348;SDS011;5974;42.710;27.258;2023-03-01T02:05:44;3.27;;;2.97;;
12348;SDS011;5974;42.710;27.258;2023-03-01T02:08:18;2.07;;;1.97;;
12348;SDS011;5974;42.710;27.258;2023-03-01T02:10:46;2.63;;;2.43;;
12348;SDS011;5974;42.710;27.258;2023-03-01T02:13:15;2.10;;;2.00;;
12348;SDS011;5974;42.710;27.258;2023-03-01T02:15:44;2.13;;;2.03;;
12348;SDS011;5974;42.710;27.258;2023-03-01T02:18:11;2.70;;;2.50;;
12348;SDS011;5974;42.710;27.258;2023-03-01T02:20:44;2.50;;;2.30;;
12348;SDS011;5974;42.710;27.258;2023-03-01T02:23:21;2.80;;;2.47;;
12348;SDS011;5974;42.710;27.258;2023-03-01T02:25:51;2.60;;;2.37;;
12348;SDS011;5974;42.710;27.258;2023-03-01T02:28:27;2.40;;;2.20;;
12348;SDS011;5974;42.710;27.258;2023-03-01T02:30:56;2.40;;;2.20;;
12348;SDS011;5974;42.710;27.258;2023-03-01T02:33:41;2.60;;;2.40;;
12348;SDS011;5974;42.710;27.258;2023-03-01T02:36:11;2.90;;;2.10;;
12348;SDS011;5974;42.710;27.258;2023-03-01T02:38:41;2.20;;;2.00;;
12348;SDS011;5974;42.710;27.258;2023-03-01T02:41:09;2.60;;;2.40;;
12348;SDS011;5974;42.710;27.258;2023-03-01T02:43:39;2.20;;;2.10;;
12348;SDS011;5974;42.710;27.258;2023-03-01T02:46:07;2.37;;;2.17;;
12348;SDS011;5974;42.710;27.258;2023-03-01T02:48:40;2.43;;;2.20;;
12348;SDS011;5974;42.710;27.258;2023-03-01T02:51:09;2.30;;;2.10;;
12348;SDS011;5974;42.710;27.258;2023-03-01T02:53:46;2.50;;;2.30;;
12348;SDS011;5974;42.710;27.258;2023-03-01T02:56:25;2.00;;;1.90;;
12348;SDS011;5974;42.710;27.258;2023-03-01T02:58:53;2.33;;;1.90;;
12348;SDS011;5974;42.710;27.258;2023-03-01T03:01:26;2.50;;;1.90;;
12348;SDS011;5974;42.710;27.258;2023-03-01T03:04:02;2.07;;;1.87;;
12348;SDS011;5974;42.710;27.258;2023-03-01T03:06:30;2.20;;;2.10;;
12348;SDS011;5974;42.710;27.258;2023-03-01T03:08:57;2.43;;;2.20;;
12348;SDS011;5974;42.710;27.258;2023-03-01T03:11:24;2.20;;;2.07;;
12348;SDS011;5974;42.710;27.258;2023-03-01T03:13:51;2.20;;;1.97;;
12348;SDS011;5974;42.710;27.258;2023-03-01T03:16:20;2.00;;;1.90;;
12348;SDS011;5974;42.710;27.258;2023-03-01T03:18:47;2.13;;;2.00;;
12348;SDS011;5974;42.710;27.258;2023-03-01T03:21:15;2.00;;;1.90;;
12348;SDS011;5974;42.710;27.258;2023-03-01T03:23:42;2.47;;;2.00;;
12348;SDS011;5974;42.710;27.258;2023-03-01T03:26:09;5.27;;;3.80;;
12348;SDS011;5974;42.710;27.258;2023-03-01T03:28:38;3.20;;;2.90;;
12348;SDS011;5974;42.710;27.258;2023-03-01T03:31:06;1.57;;;1.47;;
12348;SDS011;5974;42.710;27.258;2023-03-01T03:33:35;2.10;;;2.00;;
12348;SDS011;5974;42.710;27.258;2023-03-01T03:36:02;2.53;;;2.10;;
12348;SDS011;5974;42.710;27.258;2023-03-01T03:38:29;2.70;;;2.50;;
12348;SDS011;5974;42.710;27.258;2023-03-01T03:41:00;3.30;;;3.00;;
12348;SDS011;5974;42.710;27.258;2023-03-01T03:43:29;2.47;;;2.27;;
12348;SDS011;5974;42.710;27.258;2023-03-01T03:45:57;1.67;;;1.57;;
12348;SDS011;5974;42.710;27.258;2023-03-01T03:48:24;1.63;;;1.53;;
12348;SDS011;5974;42.710;27.258;2023-03-01T03:50:53;2.40;;;2.20;;
12348;SDS011;5974;42.710;27.258;2023-03-01T03:53:21;1.33;;;1.33;;
12348;SDS011;5974;42.710;27.258;2023-03-01T03:55:50;1.10;;;1.00;;
12348;SDS011;5974;42.710;27.258;2023-03-01T03:58:18;1.30;;;1.20;;
12348;SDS011;5974;42.710;27.258;2023-03-01T04:00:47;1.23;;;1.23;;
12348;SDS011;5974;42.710;27.258;2023-03-01T04:03:16;1.50;;;1.40;;
12348;SDS011;5974;42.710;27.258;2023-03-01T04:05:45;2.40;;;2.20;;
12348;SDS011;5974;42.710;27.258;2023-03-01T04:08:13;3.70;;;3.40;;
12348;SDS011;5974;42.710;27.258;2023-03-01T04:10:42;2.60;;;2.40;;
12348;SDS011;5974;42.710;27.258;2023-03-01T04:13:11;1.83;;;1.73;;
12348;SDS011;5974;42.710;27.258;2023-03-01T04:15:39;1.30;;;1.30;;
12348;SDS011;5974;42.710;27.258;2023-03-01T04:18:08;1.40;;;1.30;;
12348;SDS011;5974;42.710;27.258;2023-03-01T04:20:38;2.70;;;2.10;;
12348;SDS011;5974;42.710;27.258;2023-03-01T04:23:06;1.30;;;1.20;;
12348;SDS011;5974;42.710;27.258;2023-03-01T04:25:40;1.67;;;1.57;;
12348;SDS011;5974;42.710;27.258;2023-03-01T04:28:09;5.97;;;4.80;;
12348;SDS011;5974;42.710;27.258;2023-03-01T04:30:36;1.60;;;1.50;;
12348;SDS011;5974;42.710;27.258;2023-03-01T04:33:04;1.27;;;1.17;;
12348;SDS011;5974;42.710;27.258;2023-03-01T04:35:32;1.60;;;1.33;;
12348;SDS011;5974;42.710;27.258;2023-03-01T04:37:59;2.20;;;1.40;;
12348;SDS011;5974;42.710;27.258;2023-03-01T04:40:26;1.10;;;1.10;;
12348;SDS011;5974;42.710;27.258;2023-03-01T04:42:54;1.73;;;1.63;;
12348;SDS011;5974;42.710;27.258;2023-03-01T04:45:21;1.30;;;1.30;;
12348;SDS011;5974;42.710;27.258;2023-03-01T04:47:48;2.00;;;1.50;;
12348;SDS011;5974;42.710;27.258;2023-03-01T04:50:17;3.60;;;3.40;;
12348;SDS011;5974;42.710;27.258;2023-03-01T04:52:46;2.73;;;2.53;;
12348;SDS011;5974;42.710;27.258;2023-03-01T04:55:14;1.93;;;1.83;;
12348;SDS011;5974;42.710;27.258;2023-03-01T04:57:41;2.40;;;2.20;;
12348;SDS011;5974;42.710;27.258;2023-03-01T05:00:10;3.73;;;3.17;;
12348;SDS011;5974;42.710;27.258;2023-03-01T05:02:50;2.03;;;1.83;;
12348;SDS011;5974;42.710;27.258;2023-03-01T05:05:23;2.27;;;2.07;;
12348;SDS011;5974;42.710;27.258;2023-03-01T05:07:52;7.53;;;6.83;;
12348;SDS011;5974;42.710;27.258;2023-03-01T05:10:20;7.40;;;6.70;;
12348;SDS011;5974;42.710;27.258;2023-03-01T05:12:47;2.93;;;2.73;;
12348;SDS011;5974;42.710;27.258;2023-03-01T05:15:16;3.90;;;3.60;;
12348;SDS011;5974;42.710;27.258;2023-03-01T05:17:42;4.77;;;4.37;;
12348;SDS011;5974;42.710;27.258;2023-03-01T05:20:10;2.93;;;2.73;;
12348;SDS011;5974;42.710;27.258;2023-03-01T05:22:37;4.33;;;4.03;;
12348;SDS011;5974;42.710;27.258;2023-03-01T05:25:04;1.83;;;1.73;;
12348;SDS011;5974;42.710;27.258;2023-03-01T05:27:32;18.47;;;16.87;;
12348;SDS011;5974;42.710;27.258;2023-03-01T05:29:59;4.57;;;4.23;;
12348;SDS011;5974;42.710;27.258;2023-03-01T05:32:39;5.97;;;5.37;;
12348;SDS011;5974;42.710;27.258;2023-03-01T05:35:08;25.47;;;23.17;;
12348;SDS011;5974;42.710;27.258;2023-03-01T05:37:38;6.00;;;5.50;;
12348;SDS011;5974;42.710;27.258;2023-03-01T05:40:07;4.63;;;4.23;;
12348;SDS011;5974;42.710;27.258;2023-03-01T05:42:41;3.30;;;3.10;;
12348;SDS011;5974;42.710;27.258;2023-03-01T05:45:09;3.07;;;2.87;;
12348;SDS011;5974;42.710;27.258;2023-03-01T05:47:37;4.23;;;3.30;;
12348;SDS011;5974;42.710;27.258;2023-03-01T05:50:09;3.90;;;3.60;;
12348;SDS011;5974;42.710;27.258;2023-03-01T05:52:37;4.80;;;3.63;;
12348;SDS011;5974;42.710;27.258;2023-03-01T05:55:05;3.27;;;3.00;;
12348;SDS011;5974;42.710;27.258;2023-03-01T05:57:32;4.53;;;3.80;;
12348;SDS011;5974;42.710;27.258;2023-03-01T05:59:59;4.90;;;4.43;;
12348;SDS011;5974;42.710;27.258;2023-03-01T06:02:26;30.00;;;26.70;;
12348;SDS011;5974;42.710;27.258;2023-03-01T06:04:55;48.60;;;41.00;;
12348;SDS011;5974;42.710;27.258;2023-03-01T06:07:22;10.00;;;8.80;;
12348;SDS011;5974;42.710;27.258;2023-03-01T06:09:49;8.17;;;6.53;;
12348;SDS011;5974;42.710;27.258;2023-03-01T06:12:16;6.43;;;5.83;;
12348;SDS011;5974;42.710;27.258;2023-03-01T06:14:43;5.03;;;4.10;;
12348;SDS011;5974;42.710;27.258;2023-03-01T06:17:11;9.13;;;8.33;;
12348;SDS011;5974;42.710;27.258;2023-03-01T06:19:38;10.43;;;9.53;;
12348;SDS011;5974;42.710;27.258;2023-03-01T06:22:06;5.40;;;4.90;;
12348;SDS011;5974;42.710;27.258;2023-03-01T06:24:33;4.77;;;4.30;;
12348;SDS011;5974;42.710;27.258;2023-03-01T06:27:00;7.00;;;5.20;;
12348;SDS011;5974;42.710;27.258;2023-03-01T06:29:27;6.33;;;5.50;;
12348;SDS011;5974;42.710;27.258;2023-03-01T06:31:54;4.97;;;4.50;;
12348;SDS011;5974;42.710;27.258;2023-03-01T06:34:21;10.37;;;9.30;;
12348;SDS011;5974;42.710;27.258;2023-03-01T06:36:48;6.27;;;5.67;;
12348;SDS011;5974;42.710;27.258;2023-03-01T06:39:16;6.10;;;5.23;;
12348;SDS011;5974;42.710;27.258;2023-03-01T06:41:43;5.70;;;5.03;;
12348;SDS011;5974;42.710;27.258;2023-03-01T06:44:10;6.60;;;6.00;;
12348;SDS011;5974;42.710;27.258;2023-03-01T06:46:37;7.63;;;6.57;;
12348;SDS011;5974;42.710;27.258;2023-03-01T06:49:05;6.97;;;5.77;;
12348;SDS011;5974;42.710;27.258;2023-03-01T06:51:34;7.73;;;6.07;;
12348;SDS011;5974;42.710;27.258;2023-03-01T06:54:01;7.80;;;6.90;;
12348;SDS011;5974;42.710;27.258;2023-03-01T06:56:30;7.17;;;6.47;;
12348;SDS011;5974;42.710;27.258;2023-03-01T06:58:57;10.67;;;9.60;;
12348;SDS011;5974;42.710;27.258;2023-03-01T07:01:25;15.93;;;12.27;;
12348;SDS011;5974;42.710;27.258;2023-03-01T07:03:52;10.23;;;9.27;;
12348;SDS011;5974;42.710;27.258;2023-03-01T07:06:18;9.23;;;7.60;;
12348;SDS011;5974;42.710;27.258;2023-03-01T07:08:45;8.87;;;8.07;;
12348;SDS011;5974;42.710;27.258;2023-03-01T07:11:12;13.77;;;12.40;;
12348;SDS011;5974;42.710;27.258;2023-03-01T07:13:41;20.30;;;18.27;;
12348;SDS011;5974;42.710;27.258;2023-03-01T07:16:08;8.20;;;7.40;;
12348;SDS011;5974;42.710;27.258;2023-03-01T07:18:35;6.83;;;5.77;;
12348;SDS011;5974;42.710;27.258;2023-03-01T07:21:05;8.13;;;7.00;;
12348;SDS011;5974;42.710;27.258;2023-03-01T07:23:32;7.83;;;7.03;;
12348;SDS011;5974;42.710;27.258;2023-03-01T07:26:00;6.93;;;6.23;;
12348;SDS011;5974;42.710;27.258;2023-03-01T07:28:27;8.57;;;7.77;;
12348;SDS011;5974;42.710;27.258;2023-03-01T07:30:58;6.13;;;5.53;;
12348;SDS011;5974;42.710;27.258;2023-03-01T07:33:27;7.00;;;6.30;;
12348;SDS011;5974;42.710;27.258;2023-03-01T07:35:57;6.43;;;5.83;;
12348;SDS011;5974;42.710;27.258;2023-03-01T07:38:24;9.10;;;8.00;;
12348;SDS011;5974;42.710;27.258;2023-03-01T07:40:51;11.87;;;10.77;;
12348;SDS011;5974;42.710;27.258;2023-03-01T07:43:18;12.47;;;11.27;;
12348;SDS011;5974;42.710;27.258;2023-03-01T07:45:46;16.87;;;13.83;;
12348;SDS011;5974;42.710;27.258;2023-03-01T07:48:14;9.20;;;8.40;;
12348;SDS011;5974;42.710;27.258;2023-03-01T07:50:41;7.07;;;6.37;;
12348;SDS011;5974;42.710;27.258;2023-03-01T07:53:08;12.50;;;10.23;;
12348;SDS011;5974;42.710;27.258;2023-03-01T07:55:35;11.97;;;10.77;;
12348;SDS011;5974;42.710;27.258;2023-03-01T07:58:02;11.93;;;10.60;;
12348;SDS011;5974;42.710;27.258;2023-03-01T08:00:29;9.73;;;8.73;;
12348;SDS011;5974;42.710;27.258;2023-03-01T08:02:58;14.20;;;12.63;;
12348;SDS011;5974;42.710;27.258;2023-03-01T08:05:27;15.60;;;13.43;;
12348;SDS011;5974;42.710;27.258;2023-03-01T08:07:54;24.77;;;20.83;;
12348;SDS011;5974;42.710;27.258;2023-03-01T08:10:21;13.53;;;11.60;;
12348;SDS011;5974;42.710;27.258;2023-03-01T08:12:48;20.57;;;18.20;;
12348;SDS011;5974;42.710;27.258;2023-03-01T08:15:17;9.10;;;7.77;;
12348;SDS011;5974;42.710;27.258;2023-03-01T08:17:44;7.53;;;6.83;;
12348;SDS011;5974;42.710;27.258;2023-03-01T08:20:11;6.53;;;5.40;;
12348;SDS011;5974;42.710;27.258;2023-03-01T08:22:40;6.57;;;5.97;;
12348;SDS011;5974;42.710;27.258;2023-03-01T08:25:07;7.73;;;6.60;;
12348;SDS011;5974;42.710;27.258;2023-03-01T08:27:34;11.97;;;8.80;;
12348;SDS011;5974;42.710;27.258;2023-03-01T08:30:01;8.40;;;7.70;;
12348;SDS011;5974;42.710;27.258;2023-03-01T08:32:28;9.47;;;8.60;;
12348;SDS011;5974;42.710;27.258;2023-03-01T08:34:55;10.53;;;8.63;;
12348;SDS011;5974;42.710;27.258;2023-03-01T08:37:21;6.10;;;5.50;;
12348;SDS011;5974;42.710;27.258;2023-03-01T08:39:50;7.10;;;6.40;;
12348;SDS011;5974;42.710;27.258;2023-03-01T08:42:17;7.07;;;6.37;;
12348;SDS011;5974;42.710;27.258;2023-03-01T08:44:43;7.67;;;6.33;;
12348;SDS011;5974;42.710;27.258;2023-03-01T08:47:10;8.17;;;7.37;;
12348;SDS011;5974;42.710;27.258;2023-03-01T08:49:37;6.53;;;5.93;;
12348;SDS011;5974;42.710;27.258;2023-03-01T08:52:04;6.53;;;5.93;;
12348;SDS011;5974;42.710;27.258;2023-03-01T08:54:31;7.37;;;6.63;;
12348;SDS011;5974;42.710;27.258;2023-03-01T08:56:59;12.43;;;10.77;;
12348;SDS011;5974;42.710;27.258;2023-03-01T08:59:28;8.23;;;6.83;;
12348;SDS011;5974;42.710;27.258;2023-03-01T09:01:55;16.93;;;15.07;;
12348;SDS011;5974;42.710;27.258;2023-03-01T09:04:22;6.43;;;5.80;;
12348;SDS011;5974;42.710;27.258;2023-03-01T09:06:49;11.00;;;7.83;;
12348;SDS011;5974;42.710;27.258;2023-03-01T09:09:16;7.27;;;6.57;;
12348;SDS011;5974;42.710;27.258;2023-03-01T09:11:44;12.93;;;11.20;;
12348;SDS011;5974;42.710;27.258;2023-03-01T09:14:13;7.37;;;5.90;;
12348;SDS011;5974;42.710;27.258;2023-03-01T09:16:40;6.10;;;5.50;;
12348;SDS011;5974;42.710;27.258;2023-03-01T09:19:07;9.27;;;7.10;;
12348;SDS011;5974;42.710;27.258;2023-03-01T09:21:34;9.67;;;8.53;;
12348;SDS011;5974;42.710;27.258;2023-03-01T09:24:00;7.70;;;6.90;;
12348;SDS011;5974;42.710;27.258;2023-03-01T09:26:27;7.27;;;6.57;;
12348;SDS011;5974;42.710;27.258;2023-03-01T09:28:54;9.10;;;7.40;;
12348;SDS011;5974;42.710;27.258;2023-03-01T09:31:23;8.40;;;7.60;;
12348;SDS011;5974;42.710;27.258;2023-03-01T09:33:51;7.87;;;7.03;;
12348;SDS011;5974;42.710;27.258;2023-03-01T09:36:20;7.53;;;6.20;;
12348;SDS011;5974;42.710;27.258;2023-03-01T09:38:48;6.43;;;5.77;;
12348;SDS011;5974;42.710;27.258;2023-03-01T09:41:24;10.47;;;8.67;;
12348;SDS011;5974;42.710;27.258;2023-03-01T09:44:03;12.20;;;10.90;;
12348;SDS011;5974;42.710;27.258;2023-03-01T09:46:40;9.43;;;8.53;;
12348;SDS011;5974;42.710;27.258;2023-03-01T09:49:10;11.60;;;9.77;;
12348;SDS011;5974;42.710;27.258;2023-03-01T09:51:42;12.03;;;10.83;;
12348;SDS011;5974;42.710;27.258;2023-03-01T09:54:14;11.07;;;10.07;;
12348;SDS011;5974;42.710;27.258;2023-03-01T09:56:41;11.90;;;10.63;;
12348;SDS011;5974;42.710;27.258;2023-03-01T09:59:17;8.83;;;7.50;;
12348;SDS011;5974;42.710;27.258;2023-03-01T10:01:52;9.10;;;8.10;;
12348;SDS011;5974;42.710;27.258;2023-03-01T10:04:32;9.53;;;7.03;;
12348;SDS011;5974;42.710;27.258;2023-03-01T10:07:14;7.40;;;6.70;;
12348;SDS011;5974;42.710;27.258;2023-03-01T10:09:53;10.93;;;9.83;;
12348;SDS011;5974;42.710;27.258;2023-03-01T10:12:20;8.53;;;7.70;;
12348;SDS011;5974;42.710;27.258;2023-03-01T10:14:54;8.37;;;7.20;;
12348;SDS011;5974;42.710;27.258;2023-03-01T10:17:30;7.87;;;6.97;;
12348;SDS011;5974;42.710;27.258;2023-03-01T10:20:14;12.20;;;10.90;;
12348;SDS011;5974;42.710;27.258;2023-03-01T10:22:43;11.00;;;9.73;;
12348;SDS011;5974;42.710;27.258;2023-03-01T10:25:15;13.67;;;8.43;;
12348;SDS011;5974;42.710;27.258;2023-03-01T10:28:00;10.37;;;8.73;;
12348;SDS011;5974;42.710;27.258;2023-03-01T10:30:32;18.03;;;14.40;;
12348;SDS011;5974;42.710;27.258;2023-03-01T10:33:05;9.33;;;8.43;;
12348;SDS011;5974;42.710;27.258;2023-03-01T10:35:43;13.60;;;12.00;;
12348;SDS011;5974;42.710;27.258;2023-03-01T10:38:10;12.10;;;10.30;;
12348;SDS011;5974;42.710;27.258;2023-03-01T10:40:49;15.07;;;11.47;;
12348;SDS011;5974;42.710;27.258;2023-03-01T10:43:17;14.60;;;11.87;;
12348;SDS011;5974;42.710;27.258;2023-03-01T10:45:45;13.80;;;12.27;;
12348;SDS011;5974;42.710;27.258;2023-03-01T10:48:14;12.07;;;10.13;;
12348;SDS011;5974;42.710;27.258;2023-03-01T10:50:45;9.87;;;8.63;;
12348;SDS011;5974;42.710;27.258;2023-03-01T10:53:23;12.93;;;9.00;;
12348;SDS011;5974;42.710;27.258;2023-03-01T10:56:01;11.20;;;9.23;;
12348;SDS011;5974;42.710;27.258;2023-03-01T10:58:30;14.23;;;10.07;;
12348;SDS011;5974;42.710;27.258;2023-03-01T11:00:58;12.93;;;10.10;;
12348;SDS011;5974;42.710;27.258;2023-03-01T11:03:28;12.10;;;10.30;;
12348;SDS011;5974;42.710;27.258;2023-03-01T11:05:59;12.40;;;9.90;;
12348;SDS011;5974;42.710;27.258;2023-03-01T11:08:32;10.63;;;9.53;;
12348;SDS011;5974;42.710;27.258;2023-03-01T11:11:05;14.43;;;10.00;;
12348;SDS011;5974;42.710;27.258;2023-03-01T11:13:50;11.77;;;9.90;;
12348;SDS011;5974;42.710;27.258;2023-03-01T11:16:23;14.40;;;11.97;;
12348;SDS011;5974;42.710;27.258;2023-03-01T11:19:00;16.27;;;12.53;;
12348;SDS011;5974;42.710;27.258;2023-03-01T11:21:41;16.93;;;12.37;;
12348;SDS011;5974;42.710;27.258;2023-03-01T11:24:11;15.93;;;13.20;;
12348;SDS011;5974;42.710;27.258;2023-03-01T11:26:41;19.37;;;15.07;;
12348;SDS011;5974;42.710;27.258;2023-03-01T11:29:13;18.73;;;15.87;;
12348;SDS011;5974;42.710;27.258;2023-03-01T11:31:44;15.77;;;13.53;;
12348;SDS011;5974;42.710;27.258;2023-03-01T11:34:14;14.53;;;12.33;;
12348;SDS011;5974;42.710;27.258;2023-03-01T11:36:51;14.10;;;12.13;;
12348;SDS011;5974;42.710;27.258;2023-03-01T11:39:23;15.73;;;11.83;;
12348;SDS011;5974;42.710;27.258;2023-03-01T11:42:00;15.17;;;11.43;;
12348;SDS011;5974;42.710;27.258;2023-03-01T11:44:33;17.00;;;13.43;;
12348;SDS011;5974;42.710;27.258;2023-03-01T11:47:15;16.87;;;12.93;;
12348;SDS011;5974;42.710;27.258;2023-03-01T11:49:57;13.30;;;11.90;;
12348;SDS011;5974;42.710;27.258;2023-03-01T11:52:34;13.70;;;12.03;;
12348;SDS011;5974;42.710;27.258;2023-03-01T11:55:17;16.33;;;12.30;;
12348;SDS011;5974;42.710;27.258;2023-03-01T11:57:59;25.87;;;19.40;;
12348;SDS011;5974;42.710;27.258;2023-03-01T12:00:43;17.63;;;14.00;;
12348;SDS011;5974;42.710;27.258;2023-03-01T12:03:30;23.97;;;19.47;;
12348;SDS011;5974;42.710;27.258;2023-03-01T12:09:06;16.63;;;14.43;;
12348;SDS011;5974;42.710;27.258;2023-03-01T12:11:53;18.70;;;13.33;;
12348;SDS011;5974;42.710;27.258;2023-03-01T12:14:38;16.47;;;12.50;;
12348;SDS011;5974;42.710;27.258;2023-03-01T12:20:22;16.57;;;13.07;;
12348;SDS011;5974;42.710;27.258;2023-03-01T12:23:13;14.53;;;12.40;;
12348;SDS011;5974;42.710;27.258;2023-03-01T12:25:53;16.03;;;13.00;;
12348;SDS011;5974;42.710;27.258;2023-03-01T12:28:37;13.87;;;12.10;;
12348;SDS011;5974;42.710;27.258;2023-03-01T12:34:29;15.40;;;12.40;;
12348;SDS011;5974;42.710;27.258;2023-03-01T12:37:16;16.63;;;13.50;;
12348;SDS011;5974;42.710;27.258;2023-03-01T12:40:09;14.73;;;12.67;;
12348;SDS011;5974;42.710;27.258;2023-03-01T12:42:48;14.50;;;12.83;;
12348;SDS011;5974;42.710;27.258;2023-03-01T12:48:25;16.53;;;13.70;;
12348;SDS011;5974;42.710;27.258;2023-03-01T12:51:02;18.13;;;14.50;;
12348;SDS011;5974;42.710;27.258;2023-03-01T12:53:34;18.40;;;12.50;;
12348;SDS011;5974;42.710;27.258;2023-03-01T12:56:05;18.63;;;14.20;;
12348;SDS011;5974;42.710;27.258;2023-03-01T12:58:38;19.87;;;14.03;;
12348;SDS011;5974;42.710;27.258;2023-03-01T13:01:14;16.00;;;12.27;;
12348;SDS011;5974;42.710;27.258;2023-03-01T13:03:54;18.67;;;14.70;;
12348;SDS011;5974;42.710;27.258;2023-03-01T13:06:32;17.07;;;13.53;;
12348;SDS011;5974;42.710;27.258;2023-03-01T13:09:07;17.10;;;13.17;;
12348;SDS011;5974;42.710;27.258;2023-03-01T13:11:42;14.87;;;13.07;;
12348;SDS011;5974;42.710;27.258;2023-03-01T13:17:02;16.70;;;12.83;;
12348;SDS011;5974;42.710;27.258;2023-03-01T13:19:29;17.07;;;14.00;;
12348;SDS011;5974;42.710;27.258;2023-03-01T13:21:57;18.53;;;14.37;;
12348;SDS011;5974;42.710;27.258;2023-03-01T13:24:28;21.03;;;15.10;;
12348;SDS011;5974;42.710;27.258;2023-03-01T13:27:18;15.63;;;13.20;;
12348;SDS011;5974;42.710;27.258;2023-03-01T13:29:50;16.43;;;12.90;;
12348;SDS011;5974;42.710;27.258;2023-03-01T13:32:19;16.03;;;13.67;;
12348;SDS011;5974;42.710;27.258;2023-03-01T13:34:49;15.00;;;11.90;;
12348;SDS011;5974;42.710;27.258;2023-03-01T13:37:27;19.00;;;14.10;;
12348;SDS011;5974;42.710;27.258;2023-03-01T13:39:59;16.80;;;12.37;;
12348;SDS011;5974;42.710;27.258;2023-03-01T13:42:32;15.10;;;12.80;;
12348;SDS011;5974;42.710;27.258;2023-03-01T13:45:03;19.63;;;15.83;;
12348;SDS011;5974;42.710;27.258;2023-03-01T13:47:40;18.57;;;15.37;;
12348;SDS011;5974;42.710;27.258;2023-03-01T13:50:15;16.80;;;14.83;;
12348;SDS011;5974;42.710;27.258;2023-03-01T13:52:45;15.27;;;13.63;;
12348;SDS011;5974;42.710;27.258;2023-03-01T13:55:18;22.97;;;17.03;;
12348;SDS011;5974;42.710;27.258;2023-03-01T13:57:49;17.23;;;13.90;;
12348;SDS011;5974;42.710;27.258;2023-03-01T14:00:30;15.90;;;14.03;;
12348;SDS011;5974;42.710;27.258;2023-03-01T14:03:00;17.10;;;13.10;;
12348;SDS011;5974;42.710;27.258;2023-03-01T14:05:32;15.30;;;12.23;;
12348;SDS011;5974;42.710;27.258;2023-03-01T14:08:01;17.23;;;12.33;;
12348;SDS011;5974;42.710;27.258;2023-03-01T14:10:32;15.17;;;12.03;;
12348;SDS011;5974;42.710;27.258;2023-03-01T14:13:20;14.77;;;12.90;;
12348;SDS011;5974;42.710;27.258;2023-03-01T14:16:01;13.77;;;11.07;;
12348;SDS011;5974;42.710;27.258;2023-03-01T14:18:38;16.83;;;12.10;;
12348;SDS011;5974;42.710;27.258;2023-03-01T14:21:13;19.37;;;11.70;;
12348;SDS011;5974;42.710;27.258;2023-03-01T14:23:42;15.13;;;12.63;;
12348;SDS011;5974;42.710;27.258;2023-03-01T14:26:09;17.37;;;12.73;;
12348;SDS011;5974;42.710;27.258;2023-03-01T14:28:38;16.10;;;12.90;;
12348;SDS011;5974;42.710;27.258;2023-03-01T14:33:59;19.57;;;14.70;;
12348;SDS011;5974;42.710;27.258;2023-03-01T14:36:28;20.57;;;15.93;;
12348;SDS011;5974;42.710;27.258;2023-03-01T14:38:56;19.83;;;11.60;;
12348;SDS011;5974;42.710;27.258;2023-03-01T14:41:30;17.07;;;12.60;;
12348;SDS011;5974;42.710;27.258;2023-03-01T14:44:01;16.03;;;13.03;;
12348;SDS011;5974;42.710;27.258;2023-03-01T14:46:30;22.93;;;13.57;;
12348;SDS011;5974;42.710;27.258;2023-03-01T14:49:01;17.83;;;13.63;;
12348;SDS011;5974;42.710;27.258;2023-03-01T14:51:29;23.77;;;15.40;;
12348;SDS011;5974;42.710;27.258;2023-03-01T14:53:56;18.53;;;13.80;;
12348;SDS011;5974;42.710;27.258;2023-03-01T14:56:23;22.47;;;14.57;;
12348;SDS011;5974;42.710;27.258;2023-03-01T14:58:51;19.83;;;14.37;;
12348;SDS011;5974;42.710;27.258;2023-03-01T15:01:20;18.73;;;14.70;;
12348;SDS011;5974;42.710;27.258;2023-03-01T15:03:48;18.93;;;14.53;;
12348;SDS011;5974;42.710;27.258;2023-03-01T15:06:17;20.63;;;14.07;;
12348;SDS011;5974;42.710;27.258;2023-03-01T15:08:47;21.83;;;17.00;;
12348;SDS011;5974;42.710;27.258;2023-03-01T15:11:17;20.73;;;15.33;;
12348;SDS011;5974;42.710;27.258;2023-03-01T15:13:49;16.60;;;12.50;;
12348;SDS011;5974;42.710;27.258;2023-03-01T15:16:18;24.17;;;15.37;;
12348;SDS011;5974;42.710;27.258;2023-03-01T15:18:49;20.33;;;15.80;;